Time;durP1;ratioP1;P1;durP2;ratioP2;P2;SDS_P1;SDS_P2;PMS_P1;PMS_P2;Temp;Humidity;BMP_temperature;BMP_pressure;BME280_temperature;BME280_humidity;BME280_pressure;Samples;Min_cycle;Max_cycle;Signal;HPM_P1;HPM_P2
2022/12/25 00:00:09;;;;;;;;;;;;;;;6.23;66.22;100644.38;4913795;29;2181;-85
2022/12/25 00:02:36;;;;;;;;;;;;;;;6.35;65.51;100637.50;4916609;29;2187;-85
2022/12/25 00:05:02;;;;;;;;;;;;;;;6.20;66.46;100645.59;4920137;29;2220;-85
2022/12/25 00:07:29;;;;;;;;;;;;;;;6.29;66.12;100659.69;4921526;29;2147;-86
2022/12/25 00:09:55;;;;;;;;;;;;;;;6.21;65.95;100652.63;4933903;29;2239;-86
2022/12/25 00:12:23;;;;;;;;;;;;;;;6.18;66.23;100661.00;4921255;29;2083;-85
2022/12/25 00:14:50;;;;;;;;;;;;;;;6.25;66.00;100661.09;4918245;29;1306;-84
2022/12/25 00:17:16;;;;;;;;;;;;;;;6.22;66.60;100653.44;4917495;29;2258;-85
2022/12/25 00:19:43;;;;;;;;;;;;;;;6.32;66.13;100670.00;4936322;29;2217;-85
2022/12/25 00:22:09;;;;;;;;;;;;;;;6.28;65.85;100660.69;4914845;29;2865;-85
2022/12/25 00:24:36;;;;;;;;;;;;;;;6.15;66.05;100656.03;4922622;29;2374;-85
2022/12/25 00:27:03;;;;;;;;;;;;;;;6.28;66.00;100660.69;4919592;29;2068;-85
2022/12/25 00:29:29;;;;;;;;;;;;;;;6.29;66.27;100665.84;4911547;29;2198;-85
2022/12/25 00:31:56;;;;;;;;;;;;;;;6.34;65.98;100659.94;4918194;29;2569;-85
2022/12/25 00:34:22;;;;;;;;;;;;;;;6.23;66.33;100657.75;4935863;29;2071;-86
2022/12/25 00:36:49;;;;;;;;;;;;;;;6.14;66.22;100663.22;4923302;29;2252;-85
2022/12/25 00:39:15;;;;;;;;;;;;;;;6.13;66.65;100664.25;4934824;29;2169;-86
2022/12/25 00:44:25;;;;;;;;;;;;;;;6.35;66.03;100673.16;4907586;29;2040;-85
2022/12/25 00:46:52;;;;;;;;;;;;;;;6.32;66.22;100681.56;4923028;29;2221;-86
2022/12/25 00:49:18;;;;;;;;;;;;;;;6.25;65.97;100688.66;4931720;29;1939;-85
2022/12/25 00:51:45;;;;;;;;;;;;;;;6.19;66.27;100693.94;4920648;29;2311;-85
2022/12/25 00:54:11;;;;;;;;;;;;;;;6.21;66.28;100689.22;4920224;29;1796;-86
2022/12/25 00:56:38;;;;;;;;;;;;;;;6.25;65.94;100693.19;4920355;29;2353;-85
2022/12/25 00:59:05;;;;;;;;;;;;;;;6.22;66.14;100694.38;4916018;29;2012;-85
2022/12/25 01:01:32;;;;;;;;;;;;;;;6.05;66.86;100692.94;4923352;29;2279;-85
2022/12/25 01:03:58;;;;;;;;;;;;;;;6.21;66.42;100695.41;4930777;29;2194;-86
2022/12/25 01:06:25;;;;;;;;;;;;;;;6.19;66.38;100700.09;4919911;29;1690;-85
2022/12/25 01:11:35;;;;;;;;;;;;;;;6.31;66.03;100695.94;4919325;29;2230;-85
2022/12/25 01:14:02;;;;;;;;;;;;;;;6.32;66.31;100691.41;4934082;29;1722;-86
2022/12/25 01:16:29;;;;;;;;;;;;;;;6.28;66.16;100696.31;4918639;29;2105;-86
2022/12/25 01:18:55;;;;;;;;;;;;;;;6.26;66.03;100684.94;4918859;29;2559;-85
2022/12/25 01:21:22;;;;;;;;;;;;;;;6.21;66.85;100676.69;4918291;29;2207;-86
2022/12/25 01:23:48;;;;;;;;;;;;;;;6.29;66.12;100679.22;4934929;29;2953;-86
2022/12/25 01:26:15;;;;;;;;;;;;;;;6.30;66.13;100680.06;4926403;29;3265;-85
2022/12/25 01:28:41;;;;;;;;;;;;;;;6.42;65.61;100681.25;4931403;29;2083;-85
2022/12/25 01:31:08;;;;;;;;;;;;;;;6.26;66.33;100682.28;4930884;29;2133;-85
2022/12/25 01:33:34;;;;;;;;;;;;;;;6.32;65.91;100686.03;4913145;29;2238;-85
2022/12/25 01:36:01;;;;;;;;;;;;;;;6.31;66.25;100687.91;4921231;29;1232;-84
2022/12/25 01:38:27;;;;;;;;;;;;;;;6.14;66.56;100686.47;4916958;29;2120;-85
2022/12/25 01:40:54;;;;;;;;;;;;;;;6.23;66.20;100688.00;4931080;29;2061;-85
2022/12/25 01:43:21;;;;;;;;;;;;;;;6.13;66.75;100698.19;4929522;29;1978;-86
2022/12/25 01:45:48;;;;;;;;;;;;;;;6.30;66.01;100702.31;4914002;29;2056;-84
2022/12/25 01:48:14;;;;;;;;;;;;;;;6.31;66.41;100711.16;4927261;29;2098;-85
2022/12/25 01:50:41;;;;;;;;;;;;;;;6.28;66.19;100707.00;4914934;29;2142;-85
2022/12/25 01:53:08;;;;;;;;;;;;;;;6.32;65.92;100710.97;4928925;29;2758;-85
2022/12/25 01:55:34;;;;;;;;;;;;;;;6.28;66.02;100701.66;4916287;29;1902;-85
2022/12/25 01:58:01;;;;;;;;;;;;;;;6.25;66.36;100703.88;4934118;29;2043;-86
2022/12/25 02:00:27;;;;;;;;;;;;;;;6.33;66.35;100712.63;4917326;29;2230;-86
2022/12/25 02:02:54;;;;;;;;;;;;;;;6.30;66.01;100714.84;4912936;29;2074;-84
2022/12/25 02:05:20;;;;;;;;;;;;;;;6.34;66.06;100710.78;4915231;29;2479;-85
2022/12/25 02:07:47;;;;;;;;;;;;;;;6.44;65.85;100710.47;4930729;29;2210;-85
2022/12/25 02:10:13;;;;;;;;;;;;;;;6.28;66.19;100708.84;4933094;29;1994;-87
2022/12/25 02:12:40;;;;;;;;;;;;;;;6.34;66.33;100700.91;4924868;29;2092;-85
2022/12/25 02:15:07;;;;;;;;;;;;;;;6.28;66.34;100704.31;4922736;29;2278;-85
2022/12/25 02:17:33;;;;;;;;;;;;;;;6.27;66.35;100707.19;4933528;29;2060;-85
2022/12/25 02:20:00;;;;;;;;;;;;;;;6.35;66.16;100712.41;4915610;29;2205;-85
2022/12/25 02:22:26;;;;;;;;;;;;;;;6.31;66.37;100708.47;4925853;29;2842;-85
2022/12/25 02:24:53;;;;;;;;;;;;;;;6.35;66.00;100707.94;4919722;29;2253;-85
2022/12/25 02:27:19;;;;;;;;;;;;;;;6.39;65.74;100704.88;4937701;29;2190;-86
2022/12/25 02:29:46;;;;;;;;;;;;;;;6.39;66.04;100711.03;4914873;29;2077;-86
2022/12/25 02:32:13;;;;;;;;;;;;;;;6.48;65.26;100703.75;4927933;29;2390;-86
2022/12/25 02:34:39;;;;;;;;;;;;;;;6.30;66.14;100702.31;4933212;29;1876;-86
2022/12/25 02:37:06;;;;;;;;;;;;;;;6.37;65.89;100700.53;4934225;29;2208;-85
2022/12/25 03:06:41;;;;;;;;;;;;;;;6.41;65.95;100684.91;4875513;29;2322;-85
2022/12/25 03:07:08;;;;;;;;;;;;;;;6.41;65.96;100684.09;4927128;29;2237;-85
2022/12/25 03:12:19;;;;;;;;;;;;;;;6.43;65.80;100682.88;4918300;29;1834;-85
2022/12/25 03:17:30;;;;;;;;;;;;;;;6.49;65.59;100692.00;4937793;29;2175;-86
2022/12/25 03:28:09;;;;;;;;;;;;;;;6.29;66.52;100695.28;4934236;29;2999;-85
2022/12/25 03:33:19;;;;;;;;;;;;;;;6.37;66.33;100680.97;4915720;29;2124;-85
2022/12/25 03:35:45;;;;;;;;;;;;;;;6.43;66.13;100674.03;4914927;29;2120;-85
2022/12/25 04:38:31;;;;;;;;;;;;;;;6.46;66.32;100563.97;4932498;29;2945;-85
2022/12/25 04:40:57;;;;;;;;;;;;;;;6.44;66.17;100576.69;4921619;29;2202;-86
2022/12/25 04:43:24;;;;;;;;;;;;;;;6.48;66.09;100576.13;4933211;29;2193;-85
2022/12/25 04:45:51;;;;;;;;;;;;;;;6.39;66.22;100582.63;4920424;29;2178;-85
2022/12/25 04:48:17;;;;;;;;;;;;;;;6.37;66.29;100581.97;4935457;29;2078;-86
2022/12/25 04:50:44;;;;;;;;;;;;;;;6.45;66.45;100597.91;4918770;29;2237;-86
2022/12/25 04:53:11;;;;;;;;;;;;;;;6.46;66.09;100588.84;4931058;29;2253;-86
2022/12/25 04:55:37;;;;;;;;;;;;;;;6.36;66.41;100593.72;4917009;29;2568;-86
2022/12/25 04:58:04;;;;;;;;;;;;;;;6.45;65.98;100592.56;4914382;29;1769;-85
2022/12/25 05:00:31;;;;;;;;;;;;;;;6.54;65.68;100583.38;4926855;29;2146;-86
2022/12/25 05:02:57;;;;;;;;;;;;;;;6.44;66.37;100580.22;4935687;29;1576;-86
2022/12/25 05:05:24;;;;;;;;;;;;;;;6.52;65.93;100584.59;4935545;29;2247;-86
2022/12/25 05:07:50;;;;;;;;;;;;;;;6.49;66.09;100583.13;4910451;29;2320;-86
2022/12/25 05:10:17;;;;;;;;;;;;;;;6.36;66.29;100581.16;4905127;29;1691;-86
2022/12/25 05:12:43;;;;;;;;;;;;;;;6.45;66.30;100587.22;4926832;29;2109;-86
2022/12/25 05:15:10;;;;;;;;;;;;;;;6.50;66.10;100591.97;4920637;29;2617;-85
2022/12/25 05:17:37;;;;;;;;;;;;;;;6.49;66.13;100593.81;4921377;29;1790;-86
2022/12/25 05:20:04;;;;;;;;;;;;;;;6.57;65.90;100583.00;4900779;29;1791;-85
2022/12/25 05:22:30;;;;;;;;;;;;;;;6.48;66.12;100578.81;4920257;29;1967;-86
2022/12/25 05:24:57;;;;;;;;;;;;;;;6.32;66.53;100579.03;4923021;29;1813;-86
2022/12/25 05:27:26;;;;;;;;;;;;;;;6.48;66.08;100562.75;4924489;29;2118;-86
2022/12/25 05:29:52;;;;;;;;;;;;;;;6.54;66.08;100564.66;4926420;29;1954;-86
2022/12/25 05:32:19;;;;;;;;;;;;;;;6.53;65.82;100563.00;4909761;29;2161;-86
2022/12/25 05:34:45;;;;;;;;;;;;;;;6.49;66.38;100564.38;4906058;29;1826;-86
2022/12/25 05:37:12;;;;;;;;;;;;;;;6.57;66.01;100569.63;4899327;29;1870;-86
2022/12/25 05:39:38;;;;;;;;;;;;;;;6.44;66.25;100568.66;4913917;29;1751;-86
2022/12/25 05:42:05;;;;;;;;;;;;;;;6.49;65.89;100574.28;4906127;29;2175;-86
2022/12/25 05:44:32;;;;;;;;;;;;;;;6.50;65.94;100586.63;4905111;29;2004;-86
2022/12/25 05:46:58;;;;;;;;;;;;;;;6.55;66.10;100593.06;4904262;29;2008;-86
2022/12/25 05:49:25;;;;;;;;;;;;;;;6.49;65.92;100590.31;4901450;29;2781;-86
2022/12/25 05:51:51;;;;;;;;;;;;;;;6.46;65.93;100583.50;4907000;29;1992;-85
2022/12/25 05:54:18;;;;;;;;;;;;;;;6.36;66.43;100580.34;4916280;29;2179;-86
2022/12/25 05:56:44;;;;;;;;;;;;;;;6.50;66.40;100574.09;4910926;29;2083;-86
2022/12/25 05:59:11;;;;;;;;;;;;;;;6.48;66.30;100572.63;4922323;29;2014;-86
2022/12/25 06:01:37;;;;;;;;;;;;;;;6.44;66.36;100569.50;4902241;29;2087;-85
2022/12/25 06:04:04;;;;;;;;;;;;;;;6.48;65.95;100562.75;4899620;29;1995;-86
2022/12/25 06:06:30;;;;;;;;;;;;;;;6.54;66.09;100555.81;4900669;29;1888;-87
2022/12/25 06:08:57;;;;;;;;;;;;;;;6.64;65.50;100552.78;4904087;29;1919;-85
2022/12/25 06:11:23;;;;;;;;;;;;;;;6.54;65.84;100548.59;4922605;29;2022;-86
2022/12/25 06:13:50;;;;;;;;;;;;;;;6.49;65.95;100539.50;4906500;29;1932;-86
2022/12/25 06:16:17;;;;;;;;;;;;;;;6.53;66.06;100522.88;4906094;29;2023;-86
2022/12/25 06:18:43;;;;;;;;;;;;;;;6.49;66.31;100521.59;4920541;29;2626;-86
2022/12/25 06:21:10;;;;;;;;;;;;;;;6.62;65.90;100509.31;4922389;29;2301;-87
2022/12/25 06:23:36;;;;;;;;;;;;;;;6.55;66.13;100512.78;4918880;29;2063;-86
2022/12/25 06:26:03;;;;;;;;;;;;;;;6.55;65.86;100515.44;4918180;29;2012;-86
2022/12/25 06:28:29;;;;;;;;;;;;;;;6.62;65.87;100509.31;4906249;29;1996;-86
2022/12/25 06:30:56;;;;;;;;;;;;;;;6.62;65.94;100509.31;4902603;29;2210;-86
2022/12/25 06:33:23;;;;;;;;;;;;;;;6.55;65.89;100507.41;4922297;29;2126;-86
2022/12/25 06:35:49;;;;;;;;;;;;;;;6.53;66.19;100514.84;4904254;29;1806;-86
2022/12/25 06:38:16;;;;;;;;;;;;;;;6.67;65.62;100512.25;4922534;29;1620;-86
2022/12/25 06:40:42;;;;;;;;;;;;;;;6.51;66.36;100511.53;4921686;29;1928;-85
2022/12/25 06:43:09;;;;;;;;;;;;;;;6.65;65.67;100511.59;4932928;29;2248;-86
2022/12/25 06:45:36;;;;;;;;;;;;;;;6.61;65.65;100508.50;4915300;29;2091;-86
2022/12/25 06:48:02;;;;;;;;;;;;;;;6.59;66.06;100511.38;4918364;29;1982;-85
2022/12/25 06:50:29;;;;;;;;;;;;;;;6.55;66.15;100520.81;4896848;29;2687;-85
2022/12/25 06:52:56;;;;;;;;;;;;;;;6.61;65.79;100513.84;4907091;29;2886;-85
2022/12/25 06:55:22;;;;;;;;;;;;;;;6.54;66.25;100511.13;4900700;29;1607;-86
2022/12/25 06:57:49;;;;;;;;;;;;;;;6.65;65.73;100507.09;4917715;29;2023;-86
2022/12/25 07:00:15;;;;;;;;;;;;;;;6.53;66.20;100514.84;4902193;29;2191;-86
2022/12/25 07:02:42;;;;;;;;;;;;;;;6.43;66.69;100510.84;4906814;29;2033;-86
2022/12/25 07:05:09;;;;;;;;;;;;;;;6.67;65.66;100515.75;4916837;29;1718;-86
2022/12/25 07:07:35;;;;;;;;;;;;;;;6.63;66.05;100506.47;4930409;29;2141;-86
2022/12/25 07:10:02;;;;;;;;;;;;;;;6.54;66.18;100500.44;4913018;29;2554;-86
2022/12/25 07:12:28;;;;;;;;;;;;;;;6.57;65.90;100489.34;4914055;29;2157;-86
2022/12/25 07:14:55;;;;;;;;;;;;;;;6.65;65.86;100487.53;4906753;29;2195;-86
2022/12/25 07:17:21;;;;;;;;;;;;;;;6.57;66.27;100481.31;4922840;29;2240;-86
2022/12/25 07:19:48;;;;;;;;;;;;;;;6.50;66.58;100496.50;4914312;29;2561;-86
2022/12/25 07:22:14;;;;;;;;;;;;;;;6.71;65.50;100500.97;4921424;29;2705;-86
2022/12/25 07:24:41;;;;;;;;;;;;;;;6.54;66.34;100499.59;4924298;29;2272;-86
2022/12/25 07:27:08;;;;;;;;;;;;;;;6.54;66.14;100497.75;4936557;29;2712;-86
2022/12/25 07:29:34;;;;;;;;;;;;;;;6.69;65.66;100492.28;4932697;29;2309;-86
2022/12/25 07:32:01;;;;;;;;;;;;;;;6.48;66.45;100495.03;4928549;29;2148;-86
2022/12/25 07:34:28;;;;;;;;;;;;;;;6.56;66.14;100501.06;4930964;29;2221;-86
2022/12/25 07:36:54;;;;;;;;;;;;;;;6.49;66.47;100502.84;4915129;29;1907;-86
2022/12/25 07:39:22;;;;;;;;;;;;;;;6.57;66.16;100502.72;4929091;29;2003;-84
2022/12/25 07:41:49;;;;;;;;;;;;;;;6.60;66.39;100507.69;4928696;29;2095;-85
2022/12/25 07:44:15;;;;;;;;;;;;;;;6.65;66.03;100508.94;4931676;29;2156;-86
2022/12/25 07:46:42;;;;;;;;;;;;;;;6.56;66.41;100508.28;4918279;29;2195;-86
2022/12/25 07:49:08;;;;;;;;;;;;;;;6.56;66.31;100508.28;4931698;29;2234;-85
2022/12/25 07:51:35;;;;;;;;;;;;;;;6.74;65.66;100527.34;4932870;29;1041;-85
2022/12/25 07:54:01;;;;;;;;;;;;;;;6.60;65.99;100523.72;4920378;29;2161;-85
2022/12/25 07:56:28;;;;;;;;;;;;;;;6.63;66.26;100517.16;4933420;29;2149;-85
2022/12/25 07:58:55;;;;;;;;;;;;;;;6.68;65.87;100512.06;4926830;29;2912;-87
2022/12/25 08:01:21;;;;;;;;;;;;;;;6.45;66.50;100512.28;4918426;29;3395;-85
2022/12/25 08:03:48;;;;;;;;;;;;;;;6.45;66.79;100524.84;4920026;29;2243;-86
2022/12/25 08:06:14;;;;;;;;;;;;;;;6.53;66.48;100519.34;4909450;29;2086;-85
2022/12/25 08:08:41;;;;;;;;;;;;;;;6.65;66.19;100506.25;4908604;29;2171;-85
2022/12/25 08:11:07;;;;;;;;;;;;;;;6.65;66.15;100491.03;4919003;29;1998;-85
2022/12/25 08:13:34;;;;;;;;;;;;;;;6.66;66.04;100494.53;4914459;29;2036;-86
2022/12/25 08:16:00;;;;;;;;;;;;;;;6.60;65.95;100498.81;4922248;29;2071;-85
2022/12/25 08:18:27;;;;;;;;;;;;;;;6.57;66.39;100489.34;4906786;29;2201;-86
2022/12/25 08:20:53;;;;;;;;;;;;;;;6.77;65.83;100489.47;4925076;29;1952;-86
2022/12/25 08:23:20;;;;;;;;;;;;;;;6.67;65.68;100483.63;4912290;29;2166;-86
2022/12/25 08:25:46;;;;;;;;;;;;;;;6.55;66.59;100482.53;4918340;29;1806;-86
2022/12/25 08:28:13;;;;;;;;;;;;;;;6.50;66.81;100474.25;4932413;29;2085;-87
2022/12/25 08:30:40;;;;;;;;;;;;;;;6.63;66.34;100468.19;4932446;29;3086;-86
2022/12/25 08:33:06;;;;;;;;;;;;;;;6.75;65.57;100483.47;4928828;29;2507;-84
2022/12/25 08:35:33;;;;;;;;;;;;;;;6.79;65.32;100482.09;4935661;29;1971;-85
2022/12/25 08:37:59;;;;;;;;;;;;;;;6.65;66.09;100471.47;4933600;29;1238;-86
2022/12/25 08:40:26;;;;;;;;;;;;;;;6.65;66.06;100464.28;4908270;29;2072;-87
2022/12/25 08:42:52;;;;;;;;;;;;;;;6.62;66.59;100461.16;4929579;29;2192;-86
2022/12/25 08:45:19;;;;;;;;;;;;;;;6.64;66.46;100457.25;4929594;29;2129;-86
2022/12/25 08:47:45;;;;;;;;;;;;;;;6.65;66.37;100442.88;4921285;29;2170;-85
2022/12/25 08:50:12;;;;;;;;;;;;;;;6.71;66.28;100438.59;4927802;29;2075;-86
2022/12/25 08:52:38;;;;;;;;;;;;;;;6.72;66.10;100442.91;4913070;29;2197;-86
2022/12/25 08:55:05;;;;;;;;;;;;;;;6.58;66.44;100448.16;4919754;29;2015;-86
2022/12/25 08:57:31;;;;;;;;;;;;;;;6.56;66.85;100446.72;4929382;29;2075;-86
2022/12/25 08:59:58;;;;;;;;;;;;;;;6.58;66.42;100450.84;4933528;29;1995;-86
2022/12/25 09:02:24;;;;;;;;;;;;;;;6.63;66.48;100447.59;4909297;29;2046;-86
2022/12/25 09:04:51;;;;;;;;;;;;;;;6.70;66.27;100432.38;4921753;29;2086;-86
2022/12/25 09:07:18;;;;;;;;;;;;;;;6.59;66.55;100436.44;4925805;29;2039;-85
2022/12/25 09:09:44;;;;;;;;;;;;;;;6.60;66.51;100438.09;4918178;29;2909;-87
2022/12/25 09:12:11;;;;;;;;;;;;;;;6.68;66.28;100434.44;4928546;29;2140;-85
2022/12/25 09:14:37;;;;;;;;;;;;;;;6.60;66.51;100423.88;4907169;29;1881;-86
2022/12/25 09:17:04;;;;;;;;;;;;;;;6.54;66.69;100427.34;4926357;29;2018;-87
2022/12/25 09:19:30;;;;;;;;;;;;;;;6.55;66.75;100410.28;4915491;29;2208;-84
2022/12/25 09:21:57;;;;;;;;;;;;;;;6.75;65.89;100408.53;4918959;29;2223;-88
2022/12/25 09:24:23;;;;;;;;;;;;;;;6.65;66.41;100399.19;4903676;29;2023;-88
2022/12/25 09:26:50;;;;;;;;;;;;;;;6.56;66.54;100398.56;4919950;29;2029;-84
2022/12/25 09:29:16;;;;;;;;;;;;;;;6.78;65.97;100405.47;4904508;29;2132;-87
2022/12/25 09:31:43;;;;;;;;;;;;;;;6.76;66.12;100409.34;4912566;29;2006;-88
2022/12/25 09:34:09;;;;;;;;;;;;;;;6.73;66.05;100401.72;4910837;29;1621;-87
2022/12/25 09:36:36;;;;;;;;;;;;;;;6.82;65.80;100404.06;4934061;29;1589;-86
2022/12/25 09:39:02;;;;;;;;;;;;;;;6.74;66.19;100396.19;4926169;29;2595;-87
2022/12/25 09:41:29;;;;;;;;;;;;;;;6.75;66.19;100387.13;4912904;29;1974;-88
2022/12/25 09:43:56;;;;;;;;;;;;;;;6.82;65.61;100389.81;4924818;29;2124;-86
2022/12/25 09:46:22;;;;;;;;;;;;;;;6.81;65.70;100393.53;4936732;29;2046;-86
2022/12/25 09:48:49;;;;;;;;;;;;;;;6.89;65.72;100393.38;4936202;29;2412;-87
2022/12/25 09:51:15;;;;;;;;;;;;;;;6.79;66.15;100390.22;4936270;29;2577;-87
2022/12/25 09:53:42;;;;;;;;;;;;;;;6.86;66.00;100382.25;4909311;29;2255;-87
2022/12/25 09:56:08;;;;;;;;;;;;;;;6.89;65.57;100389.88;4908009;29;2045;-87
2022/12/25 09:58:35;;;;;;;;;;;;;;;6.87;65.76;100390.06;4920838;29;1360;-86
2022/12/25 10:01:01;;;;;;;;;;;;;;;6.90;65.45;100384.31;4935802;29;2007;-87
2022/12/25 10:03:28;;;;;;;;;;;;;;;6.86;65.83;100379.56;4936962;29;2070;-87
2022/12/25 10:05:54;;;;;;;;;;;;;;;6.81;65.89;100383.66;4932289;29;1352;-87
2022/12/25 10:08:21;;;;;;;;;;;;;;;6.86;65.72;100387.59;4921581;29;1341;-87
2022/12/25 10:10:47;;;;;;;;;;;;;;;6.83;65.88;100388.81;4917494;29;2021;-87
2022/12/25 10:13:14;;;;;;;;;;;;;;;6.95;65.25;100391.75;4918187;29;1251;-86
2022/12/25 10:15:41;;;;;;;;;;;;;;;6.80;66.00;100391.88;4918412;29;1929;-85
2022/12/25 10:18:07;;;;;;;;;;;;;;;6.73;66.15;100389.16;4936793;29;2458;-87
2022/12/25 10:20:34;;;;;;;;;;;;;;;6.81;66.15;100383.66;4936886;29;3494;-85
2022/12/25 10:23:01;;;;;;;;;;;;;;;6.81;65.84;100375.63;4937480;29;2167;-86
2022/12/25 10:25:27;;;;;;;;;;;;;;;6.63;66.41;100361.94;4921141;29;1541;-86
2022/12/25 10:27:54;;;;;;;;;;;;;;;6.88;66.10;100356.88;4937158;29;2197;-86
2022/12/25 10:30:20;;;;;;;;;;;;;;;6.87;65.97;100349.91;4927310;29;2304;-88
2022/12/25 10:32:47;;;;;;;;;;;;;;;6.77;66.28;100344.09;4919330;29;1987;-87
2022/12/25 10:35:14;;;;;;;;;;;;;;;6.77;65.98;100344.94;4917066;29;2582;-87
2022/12/25 10:37:40;;;;;;;;;;;;;;;6.82;65.99;100350.50;4931689;29;2130;-85
2022/12/25 10:40:07;;;;;;;;;;;;;;;6.84;66.00;100347.63;4908482;29;1175;-87
2022/12/25 10:42:34;;;;;;;;;;;;;;;6.95;65.81;100348.91;4925188;29;2015;-87
2022/12/25 10:45:01;;;;;;;;;;;;;;;6.89;65.80;100350.53;4906971;29;1493;-87
2022/12/25 10:47:27;;;;;;;;;;;;;;;6.95;65.71;100341.69;4923593;29;2395;-88
2022/12/25 10:49:54;;;;;;;;;;;;;;;6.94;65.54;100353.44;4907812;29;2679;-87
2022/12/25 10:52:20;;;;;;;;;;;;;;;7.01;65.34;100342.75;4916100;29;2104;-87
2022/12/25 10:54:47;;;;;;;;;;;;;;;7.02;65.50;100331.00;4915062;29;1508;-87
2022/12/25 10:57:15;;;;;;;;;;;;;;;6.87;65.80;100320.44;4917229;29;1450;-87
2022/12/25 10:59:41;;;;;;;;;;;;;;;6.83;66.09;100316.53;4924578;29;1508;-88
2022/12/25 11:02:07;;;;;;;;;;;;;;;7.02;65.63;100314.94;4927694;29;1646;-87
2022/12/25 11:04:34;;;;;;;;;;;;;;;6.79;66.25;100304.56;4910602;29;2885;-86
2022/12/25 11:07:01;;;;;;;;;;;;;;;6.77;66.44;100298.59;4907413;29;3383;-86
2022/12/25 11:09:28;;;;;;;;;;;;;;;6.93;66.14;100300.06;4923794;29;1986;-88
2022/12/25 11:11:54;;;;;;;;;;;;;;;6.91;65.98;100286.91;4909013;29;2373;-86
2022/12/25 11:14:21;;;;;;;;;;;;;;;7.06;65.64;100286.75;4905974;29;1461;-87
2022/12/25 11:16:48;;;;;;;;;;;;;;;6.96;65.85;100284.44;4906804;29;2618;-87
2022/12/25 11:19:14;;;;;;;;;;;;;;;6.86;65.99;100280.50;4906915;29;2903;-87
2022/12/25 11:21:41;;;;;;;;;;;;;;;7.01;65.42;100284.66;4927628;29;4282;-86
2022/12/25 11:24:07;;;;;;;;;;;;;;;6.97;65.93;100279.91;4910012;29;1482;-86
2022/12/25 11:26:34;;;;;;;;;;;;;;;6.95;65.93;100274.75;4927932;29;1473;-86
2022/12/25 11:29:00;;;;;;;;;;;;;;;6.99;65.67;100286.69;4909117;29;1929;-88
2022/12/25 11:31:27;;;;;;;;;;;;;;;7.01;65.71;100275.81;4909073;29;2017;-87
2022/12/25 11:33:54;;;;;;;;;;;;;;;7.04;65.47;100273.53;4914119;29;2074;-87
2022/12/25 11:36:21;;;;;;;;;;;;;;;7.01;65.58;100273.13;4917481;29;1534;-86
2022/12/25 11:38:47;;;;;;;;;;;;;;;7.03;65.39;100269.22;4915606;29;1491;-89
2022/12/25 11:41:17;;;;;;;;;;;;;;;6.97;66.11;100269.19;4915021;29;1710;-88
2022/12/25 11:43:44;;;;;;;;;;;;;;;7.01;65.85;100263.22;4912980;29;2040;-86
2022/12/25 11:46:10;;;;;;;;;;;;;;;7.03;65.44;100260.38;4899300;29;1529;-88
2022/12/25 11:48:37;;;;;;;;;;;;;;;6.98;65.54;100254.78;4921181;29;1939;-88
2022/12/25 11:51:03;;;;;;;;;;;;;;;7.01;65.56;100241.00;4919518;29;2971;-87
2022/12/25 11:53:30;;;;;;;;;;;;;;;7.03;65.65;100233.59;4935541;29;2125;-87
2022/12/25 11:55:57;;;;;;;;;;;;;;;7.03;65.51;100231.72;4925846;29;2424;-88
2022/12/25 11:58:23;;;;;;;;;;;;;;;6.99;65.76;100230.47;4919796;29;2070;-88
2022/12/25 12:00:50;;;;;;;;;;;;;;;7.01;65.89;100244.50;4922667;29;2122;-87
2022/12/25 12:03:17;;;;;;;;;;;;;;;7.04;65.72;100240.59;4927285;29;1569;-88
2022/12/25 12:05:43;;;;;;;;;;;;;;;7.07;65.54;100232.13;4930109;29;2018;-87
2022/12/25 12:08:10;;;;;;;;;;;;;;;7.13;65.54;100230.50;4930914;29;1718;-87
2022/12/25 12:10:36;;;;;;;;;;;;;;;7.01;66.20;100223.06;4931042;29;1978;-89
2022/12/25 12:13:03;;;;;;;;;;;;;;;6.88;66.46;100220.34;4930503;29;1980;-87
2022/12/25 12:15:29;;;;;;;;;;;;;;;6.95;65.89;100221.22;4913681;29;1920;-89
2022/12/25 12:17:56;;;;;;;;;;;;;;;7.09;65.92;100218.53;4913813;29;1539;-88
2022/12/25 12:20:23;;;;;;;;;;;;;;;7.04;66.12;100219.97;4926563;29;2594;-88
2022/12/25 12:22:49;;;;;;;;;;;;;;;7.04;65.98;100213.81;4911457;29;1950;-89
2022/12/25 12:25:16;;;;;;;;;;;;;;;6.99;66.19;100198.34;4927822;29;1892;-89
2022/12/25 12:27:42;;;;;;;;;;;;;;;7.06;65.63;100187.66;4915373;29;1949;-88
2022/12/25 12:30:09;;;;;;;;;;;;;;;6.97;66.06;100184.34;4934717;29;2158;-89
2022/12/25 12:32:36;;;;;;;;;;;;;;;6.96;66.41;100181.88;4928493;29;2081;-89
2022/12/25 12:35:02;;;;;;;;;;;;;;;7.10;65.99;100196.09;4928967;29;2047;-89
2022/12/25 12:37:29;;;;;;;;;;;;;;;7.06;65.78;100184.97;4913817;29;1886;-90
2022/12/25 12:39:56;;;;;;;;;;;;;;;6.92;66.51;100181.47;4929837;29;1880;-88
2022/12/25 12:42:24;;;;;;;;;;;;;;;7.01;66.00;100179.41;4930285;29;1629;-88
2022/12/25 12:44:51;;;;;;;;;;;;;;;6.99;66.08;100171.56;4930666;29;1700;-88
2022/12/25 12:47:17;;;;;;;;;;;;;;;6.88;66.52;100164.13;4913916;29;2016;-87
2022/12/25 12:49:44;;;;;;;;;;;;;;;7.01;66.31;100164.16;4929518;29;1932;-90
2022/12/25 12:52:10;;;;;;;;;;;;;;;6.98;65.98;100159.22;4920354;29;1483;-87
2022/12/25 12:54:37;;;;;;;;;;;;;;;6.86;66.75;100152.00;4922419;29;1571;-88
2022/12/25 12:57:04;;;;;;;;;;;;;;;6.88;66.58;100148.06;4938102;29;2707;-89
2022/12/25 12:59:34;;;;;;;;;;;;;;;6.99;66.23;100150.13;4936465;29;2078;-88
2022/12/25 13:02:00;;;;;;;;;;;;;;;6.91;66.23;100150.38;4938948;29;1892;-88
2022/12/25 13:04:28;;;;;;;;;;;;;;;6.88;66.46;100144.56;4913754;29;2080;-87
2022/12/25 13:06:55;;;;;;;;;;;;;;;6.87;67.08;100140.25;4931573;29;1821;-90
2022/12/25 13:09:22;;;;;;;;;;;;;;;6.90;66.38;100140.66;4917423;29;2067;-87
2022/12/25 13:11:48;;;;;;;;;;;;;;;6.84;66.87;100141.50;4931009;29;1895;-88
2022/12/25 13:14:15;;;;;;;;;;;;;;;6.68;67.43;100142.72;4922185;29;2086;-90
2022/12/25 13:16:42;;;;;;;;;;;;;;;6.86;66.99;100143.97;4909205;29;1923;-89
2022/12/25 13:19:08;;;;;;;;;;;;;;;6.78;67.16;100148.50;4921092;29;2114;-88
2022/12/25 13:21:35;;;;;;;;;;;;;;;6.82;66.79;100144.41;4904405;29;1243;-88
2022/12/25 13:24:01;;;;;;;;;;;;;;;6.81;66.63;100139.22;4905956;29;1310;-89
2022/12/25 13:26:28;;;;;;;;;;;;;;;6.72;67.18;100141.28;4938382;29;2187;-88
2022/12/25 13:28:54;;;;;;;;;;;;;;;6.66;67.36;100136.75;4921946;29;2255;-89
2022/12/25 13:31:21;;;;;;;;;;;;;;;6.64;67.14;100136.13;4939561;29;1969;-89
2022/12/25 13:33:47;;;;;;;;;;;;;;;6.65;67.75;100129.75;4939667;29;1998;-89
2022/12/25 13:36:14;;;;;;;;;;;;;;;6.77;67.12;100125.44;4916874;29;1242;-88
2022/12/25 13:38:40;;;;;;;;;;;;;;;6.71;67.31;100117.41;4937399;29;1330;-89
2022/12/25 13:43:54;;;;;;;;;;;;;;;6.70;67.19;100107.72;4917710;29;1898;-87
2022/12/25 13:46:20;;;;;;;;;;;;;;;6.78;67.30;100102.16;4912685;29;1463;-87
2022/12/25 13:48:47;;;;;;;;;;;;;;;6.65;67.61;100100.31;4914766;29;1981;-89
2022/12/25 13:51:13;;;;;;;;;;;;;;;6.74;66.97;100096.41;4937323;29;2085;-88
2022/12/25 13:53:40;;;;;;;;;;;;;;;6.63;67.54;100099.69;4918782;29;1274;-87
2022/12/25 13:56:06;;;;;;;;;;;;;;;6.62;67.70;100105.22;4905775;29;1671;-88
2022/12/25 13:58:33;;;;;;;;;;;;;;;6.77;67.33;100109.38;4912332;29;2274;-89
2022/12/25 14:01:00;;;;;;;;;;;;;;;6.68;67.79;100112.47;4927589;29;1642;-88
2022/12/25 14:03:26;;;;;;;;;;;;;;;6.74;67.25;100109.78;4910595;29;1877;-88
2022/12/25 14:05:53;;;;;;;;;;;;;;;6.50;67.81;100118.38;4911633;29;1744;-89
2022/12/25 14:08:19;;;;;;;;;;;;;;;6.67;67.20;100108.94;4912251;29;1766;-88
2022/12/25 14:10:46;;;;;;;;;;;;;;;6.63;67.70;100118.41;4930350;29;1968;-88
2022/12/25 14:13:12;;;;;;;;;;;;;;;6.66;67.58;100114.53;4912145;29;1760;-88
2022/12/25 14:15:39;;;;;;;;;;;;;;;6.68;67.57;100104.44;4930758;29;1488;-88
2022/12/25 14:18:06;;;;;;;;;;;;;;;6.72;67.14;100105.66;4916367;29;2009;-87
2022/12/25 14:20:32;;;;;;;;;;;;;;;6.67;67.43;100108.13;4915457;29;2069;-87
2022/12/25 14:22:59;;;;;;;;;;;;;;;6.73;67.10;100105.44;4916179;29;1352;-88
2022/12/25 14:25:26;;;;;;;;;;;;;;;6.67;67.76;100097.41;4921213;29;1273;-88
2022/12/25 14:27:53;;;;;;;;;;;;;;;6.65;67.72;100094.97;4907650;29;2937;-88
2022/12/25 14:30:19;;;;;;;;;;;;;;;6.54;67.70;100101.75;4932812;29;2086;-88
2022/12/25 14:32:46;;;;;;;;;;;;;;;6.65;67.63;100103.00;4919318;29;1470;-88
2022/12/25 14:35:13;;;;;;;;;;;;;;;6.46;68.33;100093.91;4933476;29;2079;-88
2022/12/25 14:37:40;;;;;;;;;;;;;;;6.54;68.14;100085.69;4921205;29;1312;-88
2022/12/25 14:40:06;;;;;;;;;;;;;;;6.64;67.49;100100.50;4920442;29;2138;-88
2022/12/25 14:42:33;;;;;;;;;;;;;;;6.56;67.88;100086.31;4927395;29;1477;-89